sensor_id;sensor_type;location;lat;lon;timestamp;P1;durP1;ratioP1;P2;durP2;ratioP2
20906;SDS011;10613;50.966;5.814;2023-07-08T00:03:39;9.00;;;8.00;;
20906;SDS011;10613;50.966;5.814;2023-07-08T00:07:48;7.75;;;7.00;;
20906;SDS011;10613;50.966;5.814;2023-07-08T00:11:56;7.00;;;7.00;;
20906;SDS011;10613;50.966;5.814;2023-07-08T00:16:08;10.00;;;8.00;;
20906;SDS011;10613;50.966;5.814;2023-07-08T00:20:18;8.75;;;8.25;;
20906;SDS011;10613;50.966;5.814;2023-07-08T00:24:27;7.50;;;5.25;;
20906;SDS011;10613;50.966;5.814;2023-07-08T00:28:34;8.25;;;7.00;;
20906;SDS011;10613;50.966;5.814;2023-07-08T00:32:44;8.00;;;7.25;;
20906;SDS011;10613;50.966;5.814;2023-07-08T00:36:52;6.00;;;6.00;;
20906;SDS011;10613;50.966;5.814;2023-07-08T00:45:15;6.75;;;6.25;;
20906;SDS011;10613;50.966;5.814;2023-07-08T00:49:34;6.25;;;4.00;;
20906;SDS011;10613;50.966;5.814;2023-07-08T00:53:43;8.00;;;7.25;;
20906;SDS011;10613;50.966;5.814;2023-07-08T00:57:50;4.00;;;4.00;;
20906;SDS011;10613;50.966;5.814;2023-07-08T01:01:57;7.00;;;6.25;;
20906;SDS011;10613;50.966;5.814;2023-07-08T01:06:07;8.00;;;8.00;;
20906;SDS011;10613;50.966;5.814;2023-07-08T01:10:14;6.75;;;6.75;;
20906;SDS011;10613;50.966;5.814;2023-07-08T01:14:24;9.25;;;9.25;;
20906;SDS011;10613;50.966;5.814;2023-07-08T01:18:34;6.75;;;6.75;;
20906;SDS011;10613;50.966;5.814;2023-07-08T01:22:42;5.75;;;5.75;;
20906;SDS011;10613;50.966;5.814;2023-07-08T01:26:50;6.00;;;6.00;;
20906;SDS011;10613;50.966;5.814;2023-07-08T01:30:57;8.50;;;8.00;;
20906;SDS011;10613;50.966;5.814;2023-07-08T01:35:05;8.75;;;8.00;;
20906;SDS011;10613;50.966;5.814;2023-07-08T01:39:14;8.25;;;7.50;;
20906;SDS011;10613;50.966;5.814;2023-07-08T01:43:24;10.25;;;10.25;;
20906;SDS011;10613;50.966;5.814;2023-07-08T01:47:31;11.00;;;10.75;;
20906;SDS011;10613;50.966;5.814;2023-07-08T01:51:38;9.00;;;7.75;;
20906;SDS011;10613;50.966;5.814;2023-07-08T01:55:45;8.50;;;7.75;;
20906;SDS011;10613;50.966;5.814;2023-07-08T01:59:52;10.50;;;9.50;;
20906;SDS011;10613;50.966;5.814;2023-07-08T02:03:59;8.75;;;8.00;;
20906;SDS011;10613;50.966;5.814;2023-07-08T02:08:06;10.25;;;10.25;;
20906;SDS011;10613;50.966;5.814;2023-07-08T02:12:13;8.00;;;8.00;;
20906;SDS011;10613;50.966;5.814;2023-07-08T02:16:20;10.00;;;10.00;;
20906;SDS011;10613;50.966;5.814;2023-07-08T02:20:27;10.00;;;10.00;;
20906;SDS011;10613;50.966;5.814;2023-07-08T02:24:34;9.25;;;8.50;;
20906;SDS011;10613;50.966;5.814;2023-07-08T02:28:41;9.25;;;9.25;;
20906;SDS011;10613;50.966;5.814;2023-07-08T02:32:48;7.25;;;7.25;;
20906;SDS011;10613;50.966;5.814;2023-07-08T02:37:03;9.25;;;8.50;;
20906;SDS011;10613;50.966;5.814;2023-07-08T02:41:10;9.50;;;9.50;;
20906;SDS011;10613;50.966;5.814;2023-07-08T02:45:18;10.00;;;10.00;;
20906;SDS011;10613;50.966;5.814;2023-07-08T02:49:25;9.25;;;9.00;;
20906;SDS011;10613;50.966;5.814;2023-07-08T02:53:32;10.50;;;9.00;;
20906;SDS011;10613;50.966;5.814;2023-07-08T02:57:39;8.75;;;8.50;;
20906;SDS011;10613;50.966;5.814;2023-07-08T03:01:46;10.00;;;9.00;;
20906;SDS011;10613;50.966;5.814;2023-07-08T03:05:56;12.00;;;10.25;;
20906;SDS011;10613;50.966;5.814;2023-07-08T03:10:04;8.50;;;8.50;;
20906;SDS011;10613;50.966;5.814;2023-07-08T03:14:12;10.00;;;10.00;;
20906;SDS011;10613;50.966;5.814;2023-07-08T03:18:26;10.00;;;8.25;;
20906;SDS011;10613;50.966;5.814;2023-07-08T03:22:36;9.00;;;9.00;;
20906;SDS011;10613;50.966;5.814;2023-07-08T03:26:50;11.25;;;10.25;;
20906;SDS011;10613;50.966;5.814;2023-07-08T03:31:00;9.00;;;9.00;;
20906;SDS011;10613;50.966;5.814;2023-07-08T03:35:07;11.00;;;10.50;;
20906;SDS011;10613;50.966;5.814;2023-07-08T03:39:19;10.25;;;9.00;;
20906;SDS011;10613;50.966;5.814;2023-07-08T03:43:26;10.00;;;10.00;;
20906;SDS011;10613;50.966;5.814;2023-07-08T03:47:33;12.50;;;9.75;;
20906;SDS011;10613;50.966;5.814;2023-07-08T03:51:42;9.50;;;9.50;;
20906;SDS011;10613;50.966;5.814;2023-07-08T03:55:51;13.75;;;13.25;;
20906;SDS011;10613;50.966;5.814;2023-07-08T03:59:58;9.00;;;9.00;;
20906;SDS011;10613;50.966;5.814;2023-07-08T04:04:14;11.25;;;9.00;;
20906;SDS011;10613;50.966;5.814;2023-07-08T04:08:22;12.00;;;12.00;;
20906;SDS011;10613;50.966;5.814;2023-07-08T04:12:29;14.75;;;12.75;;
20906;SDS011;10613;50.966;5.814;2023-07-08T04:20:52;12.00;;;12.00;;
20906;SDS011;10613;50.966;5.814;2023-07-08T04:24:59;12.00;;;11.25;;
20906;SDS011;10613;50.966;5.814;2023-07-08T04:29:12;11.50;;;10.50;;
20906;SDS011;10613;50.966;5.814;2023-07-08T04:33:20;17.25;;;15.50;;
20906;SDS011;10613;50.966;5.814;2023-07-08T04:37:27;11.75;;;10.50;;
20906;SDS011;10613;50.966;5.814;2023-07-08T04:41:35;11.25;;;10.50;;
20906;SDS011;10613;50.966;5.814;2023-07-08T04:45:48;14.25;;;13.00;;
20906;SDS011;10613;50.966;5.814;2023-07-08T04:49:57;12.50;;;10.00;;
20906;SDS011;10613;50.966;5.814;2023-07-08T04:54:04;10.00;;;10.00;;
20906;SDS011;10613;50.966;5.814;2023-07-08T04:58:11;10.75;;;10.75;;
20906;SDS011;10613;50.966;5.814;2023-07-08T05:02:18;9.75;;;9.75;;
20906;SDS011;10613;50.966;5.814;2023-07-08T05:06:26;9.75;;;9.00;;
20906;SDS011;10613;50.966;5.814;2023-07-08T05:10:33;15.00;;;11.00;;
20906;SDS011;10613;50.966;5.814;2023-07-08T05:14:40;11.50;;;11.50;;
20906;SDS011;10613;50.966;5.814;2023-07-08T05:18:47;11.00;;;11.00;;
20906;SDS011;10613;50.966;5.814;2023-07-08T05:22:54;9.00;;;9.00;;
20906;SDS011;10613;50.966;5.814;2023-07-08T05:27:02;11.50;;;11.50;;
20906;SDS011;10613;50.966;5.814;2023-07-08T05:31:10;10.75;;;9.75;;
20906;SDS011;10613;50.966;5.814;2023-07-08T05:35:17;10.00;;;9.00;;
20906;SDS011;10613;50.966;5.814;2023-07-08T05:39:24;10.00;;;10.00;;
20906;SDS011;10613;50.966;5.814;2023-07-08T05:43:31;13.50;;;9.50;;
20906;SDS011;10613;50.966;5.814;2023-07-08T05:47:38;12.25;;;10.75;;
20906;SDS011;10613;50.966;5.814;2023-07-08T05:51:45;11.75;;;11.75;;
20906;SDS011;10613;50.966;5.814;2023-07-08T05:55:52;13.00;;;12.00;;
20906;SDS011;10613;50.966;5.814;2023-07-08T05:59:59;13.50;;;13.50;;
20906;SDS011;10613;50.966;5.814;2023-07-08T06:04:12;8.00;;;8.00;;
20906;SDS011;10613;50.966;5.814;2023-07-08T06:08:19;8.75;;;8.75;;
20906;SDS011;10613;50.966;5.814;2023-07-08T06:12:26;12.50;;;11.25;;
20906;SDS011;10613;50.966;5.814;2023-07-08T06:16:33;10.75;;;9.75;;
20906;SDS011;10613;50.966;5.814;2023-07-08T06:20:41;12.00;;;9.00;;
20906;SDS011;10613;50.966;5.814;2023-07-08T06:24:48;12.25;;;9.00;;
20906;SDS011;10613;50.966;5.814;2023-07-08T06:28:55;9.00;;;9.00;;
20906;SDS011;10613;50.966;5.814;2023-07-08T06:33:02;10.75;;;9.75;;
20906;SDS011;10613;50.966;5.814;2023-07-08T06:37:09;9.75;;;8.75;;
20906;SDS011;10613;50.966;5.814;2023-07-08T06:41:16;9.00;;;8.00;;
20906;SDS011;10613;50.966;5.814;2023-07-08T06:45:23;10.00;;;10.00;;
20906;SDS011;10613;50.966;5.814;2023-07-08T06:49:30;10.00;;;10.00;;
20906;SDS011;10613;50.966;5.814;2023-07-08T06:53:37;12.50;;;9.50;;
20906;SDS011;10613;50.966;5.814;2023-07-08T06:57:44;8.75;;;8.75;;
20906;SDS011;10613;50.966;5.814;2023-07-08T07:01:51;8.25;;;8.25;;
20906;SDS011;10613;50.966;5.814;2023-07-08T07:05:58;9.50;;;9.00;;
20906;SDS011;10613;50.966;5.814;2023-07-08T07:10:05;8.25;;;7.75;;
20906;SDS011;10613;50.966;5.814;2023-07-08T07:14:14;10.50;;;9.50;;
20906;SDS011;10613;50.966;5.814;2023-07-08T07:18:21;11.00;;;10.25;;
20906;SDS011;10613;50.966;5.814;2023-07-08T07:22:28;9.00;;;9.00;;
20906;SDS011;10613;50.966;5.814;2023-07-08T07:26:35;11.00;;;10.25;;
20906;SDS011;10613;50.966;5.814;2023-07-08T07:30:44;10.00;;;10.00;;
20906;SDS011;10613;50.966;5.814;2023-07-08T07:34:50;11.00;;;10.00;;
20906;SDS011;10613;50.966;5.814;2023-07-08T07:39:04;13.25;;;13.25;;
20906;SDS011;10613;50.966;5.814;2023-07-08T07:43:11;9.75;;;8.25;;
20906;SDS011;10613;50.966;5.814;2023-07-08T07:47:19;10.25;;;10.00;;
20906;SDS011;10613;50.966;5.814;2023-07-08T07:51:26;9.25;;;8.50;;
20906;SDS011;10613;50.966;5.814;2023-07-08T07:55:33;9.00;;;8.00;;
20906;SDS011;10613;50.966;5.814;2023-07-08T07:59:40;11.25;;;10.75;;
20906;SDS011;10613;50.966;5.814;2023-07-08T08:03:48;12.00;;;11.00;;
20906;SDS011;10613;50.966;5.814;2023-07-08T08:07:57;10.50;;;10.00;;
20906;SDS011;10613;50.966;5.814;2023-07-08T08:12:04;7.75;;;7.50;;
20906;SDS011;10613;50.966;5.814;2023-07-08T08:16:11;8.50;;;8.50;;
20906;SDS011;10613;50.966;5.814;2023-07-08T08:20:19;8.75;;;8.00;;
20906;SDS011;10613;50.966;5.814;2023-07-08T08:24:26;8.25;;;7.25;;
20906;SDS011;10613;50.966;5.814;2023-07-08T08:28:33;8.25;;;8.25;;
20906;SDS011;10613;50.966;5.814;2023-07-08T08:32:40;9.00;;;9.00;;
20906;SDS011;10613;50.966;5.814;2023-07-08T08:36:47;10.75;;;9.00;;
20906;SDS011;10613;50.966;5.814;2023-07-08T08:40:54;8.75;;;8.00;;
20906;SDS011;10613;50.966;5.814;2023-07-08T08:45:02;9.25;;;9.25;;
20906;SDS011;10613;50.966;5.814;2023-07-08T08:53:19;9.00;;;9.00;;
20906;SDS011;10613;50.966;5.814;2023-07-08T09:06:39;12.00;;;11.00;;
20906;SDS011;10613;50.966;5.814;2023-07-08T09:10:48;9.50;;;9.50;;
20906;SDS011;10613;50.966;5.814;2023-07-08T09:14:57;9.75;;;9.00;;
20906;SDS011;10613;50.966;5.814;2023-07-08T09:19:06;9.50;;;9.50;;
20906;SDS011;10613;50.966;5.814;2023-07-08T09:23:24;8.50;;;8.25;;
20906;SDS011;10613;50.966;5.814;2023-07-08T09:27:32;9.00;;;8.25;;
20906;SDS011;10613;50.966;5.814;2023-07-08T09:31:39;8.50;;;8.00;;
20906;SDS011;10613;50.966;5.814;2023-07-08T09:35:48;14.50;;;13.00;;
20906;SDS011;10613;50.966;5.814;2023-07-08T09:39:57;9.00;;;9.00;;
20906;SDS011;10613;50.966;5.814;2023-07-08T09:44:24;9.00;;;9.00;;
20906;SDS011;10613;50.966;5.814;2023-07-08T09:48:36;9.25;;;9.00;;
20906;SDS011;10613;50.966;5.814;2023-07-08T09:52:43;17.75;;;14.25;;
20906;SDS011;10613;50.966;5.814;2023-07-08T09:57:00;7.00;;;7.00;;
20906;SDS011;10613;50.966;5.814;2023-07-08T10:01:12;10.50;;;8.75;;
20906;SDS011;10613;50.966;5.814;2023-07-08T10:09:30;8.00;;;8.00;;
20906;SDS011;10613;50.966;5.814;2023-07-08T10:13:38;6.75;;;6.75;;
20906;SDS011;10613;50.966;5.814;2023-07-08T10:17:45;5.75;;;5.75;;
20906;SDS011;10613;50.966;5.814;2023-07-08T10:26:05;12.50;;;10.50;;
20906;SDS011;10613;50.966;5.814;2023-07-08T10:30:22;10.00;;;10.00;;
20906;SDS011;10613;50.966;5.814;2023-07-08T10:55:58;10.75;;;9.50;;
20906;SDS011;10613;50.966;5.814;2023-07-08T11:00:49;11.00;;;6.75;;
20906;SDS011;10613;50.966;5.814;2023-07-08T11:08:56;8.50;;;6.75;;
20906;SDS011;10613;50.966;5.814;2023-07-08T11:13:12;7.50;;;7.50;;
20906;SDS011;10613;50.966;5.814;2023-07-08T11:17:23;11.00;;;10.00;;
20906;SDS011;10613;50.966;5.814;2023-07-08T11:22:16;8.00;;;8.00;;
20906;SDS011;10613;50.966;5.814;2023-07-08T11:26:07;10.25;;;10.25;;
20906;SDS011;10613;50.966;5.814;2023-07-08T11:30:17;7.50;;;6.75;;
20906;SDS011;10613;50.966;5.814;2023-07-08T11:34:27;8.00;;;8.00;;
20906;SDS011;10613;50.966;5.814;2023-07-08T11:38:35;9.75;;;8.50;;
20906;SDS011;10613;50.966;5.814;2023-07-08T11:42:43;11.00;;;9.50;;
20906;SDS011;10613;50.966;5.814;2023-07-08T11:46:55;6.25;;;5.00;;
20906;SDS011;10613;50.966;5.814;2023-07-08T11:51:05;7.00;;;7.00;;
20906;SDS011;10613;50.966;5.814;2023-07-08T11:55:14;7.25;;;7.25;;
20906;SDS011;10613;50.966;5.814;2023-07-08T11:59:30;8.25;;;7.25;;
20906;SDS011;10613;50.966;5.814;2023-07-08T12:08:12;6.75;;;6.75;;
20906;SDS011;10613;50.966;5.814;2023-07-08T12:12:27;8.00;;;7.00;;
20906;SDS011;10613;50.966;5.814;2023-07-08T12:16:36;8.50;;;6.50;;
20906;SDS011;10613;50.966;5.814;2023-07-08T12:20:56;5.75;;;5.75;;
20906;SDS011;10613;50.966;5.814;2023-07-08T12:25:07;8.75;;;8.75;;
20906;SDS011;10613;50.966;5.814;2023-07-08T12:29:13;9.25;;;9.25;;
20906;SDS011;10613;50.966;5.814;2023-07-08T12:33:33;8.75;;;8.00;;
20906;SDS011;10613;50.966;5.814;2023-07-08T12:37:40;8.50;;;7.50;;
20906;SDS011;10613;50.966;5.814;2023-07-08T12:41:47;8.00;;;8.00;;
20906;SDS011;10613;50.966;5.814;2023-07-08T12:45:54;9.00;;;8.50;;
20906;SDS011;10613;50.966;5.814;2023-07-08T12:50:01;12.00;;;12.00;;
20906;SDS011;10613;50.966;5.814;2023-07-08T12:54:09;6.50;;;6.50;;
20906;SDS011;10613;50.966;5.814;2023-07-08T12:58:23;7.00;;;7.00;;
20906;SDS011;10613;50.966;5.814;2023-07-08T13:02:32;9.00;;;8.00;;
20906;SDS011;10613;50.966;5.814;2023-07-08T13:06:39;12.50;;;12.25;;
20906;SDS011;10613;50.966;5.814;2023-07-08T13:10:48;9.00;;;8.75;;
20906;SDS011;10613;50.966;5.814;2023-07-08T13:14:56;8.50;;;8.50;;
20906;SDS011;10613;50.966;5.814;2023-07-08T13:19:04;6.50;;;6.25;;
20906;SDS011;10613;50.966;5.814;2023-07-08T13:23:11;7.50;;;7.50;;
20906;SDS011;10613;50.966;5.814;2023-07-08T13:27:23;8.00;;;8.00;;
20906;SDS011;10613;50.966;5.814;2023-07-08T13:31:33;9.00;;;7.00;;
20906;SDS011;10613;50.966;5.814;2023-07-08T13:35:40;9.50;;;8.50;;
20906;SDS011;10613;50.966;5.814;2023-07-08T13:39:48;8.50;;;7.75;;
20906;SDS011;10613;50.966;5.814;2023-07-08T13:43:55;8.25;;;7.25;;
20906;SDS011;10613;50.966;5.814;2023-07-08T13:56:21;8.00;;;8.00;;
20906;SDS011;10613;50.966;5.814;2023-07-08T14:00:31;7.00;;;7.00;;
20906;SDS011;10613;50.966;5.814;2023-07-08T14:04:37;9.25;;;9.00;;
20906;SDS011;10613;50.966;5.814;2023-07-08T14:08:44;8.00;;;8.00;;
20906;SDS011;10613;50.966;5.814;2023-07-08T14:12:51;8.50;;;8.25;;
20906;SDS011;10613;50.966;5.814;2023-07-08T14:16:59;10.25;;;9.25;;
20906;SDS011;10613;50.966;5.814;2023-07-08T14:21:06;8.00;;;8.00;;
20906;SDS011;10613;50.966;5.814;2023-07-08T14:25:14;10.75;;;10.50;;
20906;SDS011;10613;50.966;5.814;2023-07-08T14:29:22;9.25;;;9.00;;
20906;SDS011;10613;50.966;5.814;2023-07-08T14:33:29;9.75;;;7.75;;
20906;SDS011;10613;50.966;5.814;2023-07-08T14:37:36;6.50;;;6.50;;
20906;SDS011;10613;50.966;5.814;2023-07-08T14:41:50;9.50;;;9.00;;
20906;SDS011;10613;50.966;5.814;2023-07-08T14:45:57;7.75;;;7.75;;
20906;SDS011;10613;50.966;5.814;2023-07-08T14:50:11;7.25;;;6.50;;
20906;SDS011;10613;50.966;5.814;2023-07-08T14:54:19;7.75;;;7.75;;
20906;SDS011;10613;50.966;5.814;2023-07-08T14:58:30;9.75;;;9.75;;
20906;SDS011;10613;50.966;5.814;2023-07-08T15:02:40;9.00;;;9.00;;
20906;SDS011;10613;50.966;5.814;2023-07-08T15:06:48;9.00;;;8.50;;
20906;SDS011;10613;50.966;5.814;2023-07-08T15:10:56;7.75;;;7.75;;
20906;SDS011;10613;50.966;5.814;2023-07-08T15:15:04;12.00;;;9.75;;
20906;SDS011;10613;50.966;5.814;2023-07-08T15:19:11;9.25;;;9.25;;
20906;SDS011;10613;50.966;5.814;2023-07-08T15:23:18;10.50;;;10.00;;
20906;SDS011;10613;50.966;5.814;2023-07-08T15:27:26;11.00;;;11.00;;
20906;SDS011;10613;50.966;5.814;2023-07-08T15:31:33;12.00;;;11.00;;
20906;SDS011;10613;50.966;5.814;2023-07-08T15:35:41;10.25;;;9.00;;
20906;SDS011;10613;50.966;5.814;2023-07-08T15:39:49;12.25;;;10.25;;
20906;SDS011;10613;50.966;5.814;2023-07-08T15:43:56;11.50;;;11.50;;
20906;SDS011;10613;50.966;5.814;2023-07-08T15:48:03;14.50;;;13.50;;
20906;SDS011;10613;50.966;5.814;2023-07-08T15:52:12;13.75;;;11.00;;
20906;SDS011;10613;50.966;5.814;2023-07-08T15:56:19;11.25;;;11.25;;
20906;SDS011;10613;50.966;5.814;2023-07-08T16:00:27;16.00;;;14.75;;
20906;SDS011;10613;50.966;5.814;2023-07-08T16:04:34;11.00;;;11.00;;
20906;SDS011;10613;50.966;5.814;2023-07-08T16:08:42;13.75;;;12.25;;
20906;SDS011;10613;50.966;5.814;2023-07-08T16:12:50;11.00;;;10.00;;
20906;SDS011;10613;50.966;5.814;2023-07-08T16:16:58;10.75;;;10.75;;
20906;SDS011;10613;50.966;5.814;2023-07-08T16:21:05;10.00;;;10.00;;
20906;SDS011;10613;50.966;5.814;2023-07-08T16:25:13;9.00;;;9.00;;
20906;SDS011;10613;50.966;5.814;2023-07-08T16:29:21;12.50;;;11.00;;
20906;SDS011;10613;50.966;5.814;2023-07-08T16:33:28;8.75;;;8.50;;
20906;SDS011;10613;50.966;5.814;2023-07-08T16:37:35;9.50;;;9.50;;
20906;SDS011;10613;50.966;5.814;2023-07-08T16:41:42;10.50;;;10.00;;
20906;SDS011;10613;50.966;5.814;2023-07-08T16:45:49;8.50;;;8.50;;
20906;SDS011;10613;50.966;5.814;2023-07-08T16:49:56;9.75;;;8.50;;
20906;SDS011;10613;50.966;5.814;2023-07-08T16:54:36;11.75;;;9.00;;
20906;SDS011;10613;50.966;5.814;2023-07-08T16:58:36;9.50;;;9.50;;
20906;SDS011;10613;50.966;5.814;2023-07-08T17:02:43;10.00;;;9.00;;
20906;SDS011;10613;50.966;5.814;2023-07-08T17:06:51;8.00;;;8.00;;
20906;SDS011;10613;50.966;5.814;2023-07-08T17:10:58;11.00;;;10.25;;
20906;SDS011;10613;50.966;5.814;2023-07-08T17:15:05;9.25;;;8.00;;
20906;SDS011;10613;50.966;5.814;2023-07-08T17:19:12;10.75;;;9.50;;
20906;SDS011;10613;50.966;5.814;2023-07-08T17:23:20;8.50;;;8.50;;
20906;SDS011;10613;50.966;5.814;2023-07-08T17:27:28;7.75;;;7.75;;
20906;SDS011;10613;50.966;5.814;2023-07-08T17:31:35;6.75;;;6.75;;
20906;SDS011;10613;50.966;5.814;2023-07-08T17:35:43;6.75;;;6.00;;
20906;SDS011;10613;50.966;5.814;2023-07-08T17:39:50;8.75;;;8.00;;
20906;SDS011;10613;50.966;5.814;2023-07-08T17:43:57;8.25;;;8.25;;
20906;SDS011;10613;50.966;5.814;2023-07-08T17:48:21;8.25;;;7.25;;
20906;SDS011;10613;50.966;5.814;2023-07-08T17:52:29;8.50;;;8.50;;
20906;SDS011;10613;50.966;5.814;2023-07-08T17:56:37;7.25;;;7.25;;
20906;SDS011;10613;50.966;5.814;2023-07-08T18:00:45;9.00;;;8.00;;
20906;SDS011;10613;50.966;5.814;2023-07-08T18:04:54;7.25;;;7.25;;
20906;SDS011;10613;50.966;5.814;2023-07-08T18:09:01;8.00;;;8.00;;
20906;SDS011;10613;50.966;5.814;2023-07-08T18:13:14;9.25;;;7.25;;
20906;SDS011;10613;50.966;5.814;2023-07-08T18:17:23;9.50;;;9.00;;
20906;SDS011;10613;50.966;5.814;2023-07-08T18:21:30;7.00;;;7.00;;
20906;SDS011;10613;50.966;5.814;2023-07-08T18:25:37;8.25;;;8.25;;
20906;SDS011;10613;50.966;5.814;2023-07-08T18:29:44;10.75;;;10.75;;
20906;SDS011;10613;50.966;5.814;2023-07-08T18:33:52;9.75;;;8.75;;
20906;SDS011;10613;50.966;5.814;2023-07-08T18:37:59;8.50;;;7.75;;
20906;SDS011;10613;50.966;5.814;2023-07-08T18:42:07;8.00;;;6.75;;
20906;SDS011;10613;50.966;5.814;2023-07-08T18:46:15;9.75;;;8.25;;
20906;SDS011;10613;50.966;5.814;2023-07-08T18:50:23;8.25;;;8.25;;
20906;SDS011;10613;50.966;5.814;2023-07-08T18:54:33;11.00;;;9.25;;
20906;SDS011;10613;50.966;5.814;2023-07-08T18:58:40;7.50;;;7.50;;
20906;SDS011;10613;50.966;5.814;2023-07-08T19:02:58;7.50;;;6.75;;
20906;SDS011;10613;50.966;5.814;2023-07-08T19:07:07;11.50;;;11.00;;
20906;SDS011;10613;50.966;5.814;2023-07-08T19:11:20;8.00;;;8.00;;
20906;SDS011;10613;50.966;5.814;2023-07-08T19:15:30;10.75;;;8.00;;
20906;SDS011;10613;50.966;5.814;2023-07-08T19:19:37;11.50;;;10.50;;
20906;SDS011;10613;50.966;5.814;2023-07-08T19:23:45;9.50;;;8.75;;
20906;SDS011;10613;50.966;5.814;2023-07-08T19:27:52;7.75;;;7.75;;
20906;SDS011;10613;50.966;5.814;2023-07-08T19:31:59;5.75;;;5.75;;
20906;SDS011;10613;50.966;5.814;2023-07-08T19:36:06;6.25;;;6.00;;
20906;SDS011;10613;50.966;5.814;2023-07-08T19:40:15;7.75;;;6.25;;
20906;SDS011;10613;50.966;5.814;2023-07-08T19:44:24;6.00;;;6.00;;
20906;SDS011;10613;50.966;5.814;2023-07-08T19:48:31;6.50;;;6.50;;
20906;SDS011;10613;50.966;5.814;2023-07-08T19:52:38;7.50;;;7.50;;
20906;SDS011;10613;50.966;5.814;2023-07-08T19:56:45;6.50;;;6.50;;
20906;SDS011;10613;50.966;5.814;2023-07-08T20:00:52;8.50;;;8.00;;
20906;SDS011;10613;50.966;5.814;2023-07-08T20:04:59;7.75;;;6.25;;
20906;SDS011;10613;50.966;5.814;2023-07-08T20:09:08;9.75;;;8.75;;
20906;SDS011;10613;50.966;5.814;2023-07-08T20:13:15;7.00;;;6.75;;
20906;SDS011;10613;50.966;5.814;2023-07-08T20:17:22;7.25;;;7.00;;
20906;SDS011;10613;50.966;5.814;2023-07-08T20:21:29;9.75;;;9.00;;
20906;SDS011;10613;50.966;5.814;2023-07-08T20:25:36;9.50;;;9.50;;
20906;SDS011;10613;50.966;5.814;2023-07-08T20:29:43;7.00;;;7.00;;
20906;SDS011;10613;50.966;5.814;2023-07-08T20:33:57;10.00;;;10.00;;
20906;SDS011;10613;50.966;5.814;2023-07-08T20:38:04;13.50;;;10.75;;
20906;SDS011;10613;50.966;5.814;2023-07-08T20:42:12;10.00;;;9.00;;
20906;SDS011;10613;50.966;5.814;2023-07-08T20:46:20;13.00;;;12.25;;
20906;SDS011;10613;50.966;5.814;2023-07-08T20:50:28;12.75;;;10.75;;
20906;SDS011;10613;50.966;5.814;2023-07-08T20:54:35;10.50;;;10.50;;
20906;SDS011;10613;50.966;5.814;2023-07-08T20:58:42;13.50;;;12.50;;
20906;SDS011;10613;50.966;5.814;2023-07-08T21:02:49;10.75;;;10.75;;
20906;SDS011;10613;50.966;5.814;2023-07-08T21:06:57;13.50;;;13.00;;
20906;SDS011;10613;50.966;5.814;2023-07-08T21:11:05;16.00;;;16.00;;
20906;SDS011;10613;50.966;5.814;2023-07-08T21:15:12;19.00;;;16.50;;
20906;SDS011;10613;50.966;5.814;2023-07-08T21:19:36;11.00;;;11.00;;
20906;SDS011;10613;50.966;5.814;2023-07-08T21:23:43;15.25;;;15.25;;
20906;SDS011;10613;50.966;5.814;2023-07-08T21:27:57;20.75;;;18.50;;
20906;SDS011;10613;50.966;5.814;2023-07-08T21:32:04;15.00;;;15.00;;
20906;SDS011;10613;50.966;5.814;2023-07-08T21:36:24;21.00;;;18.00;;
20906;SDS011;10613;50.966;5.814;2023-07-08T21:40:36;31.00;;;29.50;;
20906;SDS011;10613;50.966;5.814;2023-07-08T21:44:43;16.00;;;14.50;;
20906;SDS011;10613;50.966;5.814;2023-07-08T21:48:50;14.25;;;14.00;;
20906;SDS011;10613;50.966;5.814;2023-07-08T21:52:58;17.75;;;17.50;;
20906;SDS011;10613;50.966;5.814;2023-07-08T21:57:05;13.50;;;12.25;;
20906;SDS011;10613;50.966;5.814;2023-07-08T22:01:16;14.25;;;13.00;;
20906;SDS011;10613;50.966;5.814;2023-07-08T22:05:26;12.25;;;12.25;;
20906;SDS011;10613;50.966;5.814;2023-07-08T22:09:33;15.00;;;15.00;;
20906;SDS011;10613;50.966;5.814;2023-07-08T22:13:40;18.00;;;15.25;;
20906;SDS011;10613;50.966;5.814;2023-07-08T22:17:48;15.50;;;13.75;;
20906;SDS011;10613;50.966;5.814;2023-07-08T22:21:55;15.75;;;15.75;;
20906;SDS011;10613;50.966;5.814;2023-07-08T22:26:02;16.75;;;15.75;;
20906;SDS011;10613;50.966;5.814;2023-07-08T22:30:09;13.50;;;13.50;;
20906;SDS011;10613;50.966;5.814;2023-07-08T22:34:17;14.25;;;13.50;;
20906;SDS011;10613;50.966;5.814;2023-07-08T22:38:24;15.00;;;14.00;;
20906;SDS011;10613;50.966;5.814;2023-07-08T22:42:31;16.25;;;14.75;;
20906;SDS011;10613;50.966;5.814;2023-07-08T22:46:38;13.25;;;13.25;;
20906;SDS011;10613;50.966;5.814;2023-07-08T22:50:46;17.50;;;17.50;;
20906;SDS011;10613;50.966;5.814;2023-07-08T22:54:55;18.50;;;16.50;;
20906;SDS011;10613;50.966;5.814;2023-07-08T22:59:02;16.00;;;16.00;;
20906;SDS011;10613;50.966;5.814;2023-07-08T23:03:09;18.00;;;15.00;;
20906;SDS011;10613;50.966;5.814;2023-07-08T23:07:16;15.25;;;15.00;;
20906;SDS011;10613;50.966;5.814;2023-07-08T23:11:24;17.75;;;17.75;;
20906;SDS011;10613;50.966;5.814;2023-07-08T23:15:31;14.25;;;13.75;;
20906;SDS011;10613;50.966;5.814;2023-07-08T23:19:38;15.75;;;14.25;;
20906;SDS011;10613;50.966;5.814;2023-07-08T23:23:46;14.00;;;13.00;;
20906;SDS011;10613;50.966;5.814;2023-07-08T23:27:53;17.75;;;16.25;;
20906;SDS011;10613;50.966;5.814;2023-07-08T23:32:00;15.50;;;14.50;;
20906;SDS011;10613;50.966;5.814;2023-07-08T23:36:10;16.75;;;14.25;;
20906;SDS011;10613;50.966;5.814;2023-07-08T23:40:22;17.50;;;17.50;;
20906;SDS011;10613;50.966;5.814;2023-07-08T23:44:29;15.75;;;15.50;;
20906;SDS011;10613;50.966;5.814;2023-07-08T23:48:36;16.00;;;16.00;;
20906;SDS011;10613;50.966;5.814;2023-07-08T23:52:44;16.75;;;14.75;;
20906;SDS011;10613;50.966;5.814;2023-07-08T23:56:52;20.25;;;18.00;;
